sensor_id;sensor_type;location;lat;lon;timestamp;temperature;humidity
7496;DHT22;3789;47.064;15.482;2024-03-02T00:00:25;7.00;99.90
7496;DHT22;3789;47.064;15.482;2024-03-02T00:02:57;7.10;99.90
7496;DHT22;3789;47.064;15.482;2024-03-02T00:05:32;7.10;99.90
7496;DHT22;3789;47.064;15.482;2024-03-02T00:08:24;7.20;99.90
7496;DHT22;3789;47.064;15.482;2024-03-02T00:11:03;7.10;99.90
7496;DHT22;3789;47.064;15.482;2024-03-02T00:13:31;6.90;99.90
7496;DHT22;3789;47.064;15.482;2024-03-02T00:16:10;6.80;99.90
7496;DHT22;3789;47.064;15.482;2024-03-02T00:18:38;6.80;99.90
7496;DHT22;3789;47.064;15.482;2024-03-02T00:21:08;6.80;99.90
7496;DHT22;3789;47.064;15.482;2024-03-02T00:23:39;6.70;99.90
7496;DHT22;3789;47.064;15.482;2024-03-02T00:26:16;6.90;99.90
7496;DHT22;3789;47.064;15.482;2024-03-02T00:28:44;6.90;99.90
7496;DHT22;3789;47.064;15.482;2024-03-02T00:31:15;6.90;99.90
7496;DHT22;3789;47.064;15.482;2024-03-02T00:33:54;7.10;99.90
7496;DHT22;3789;47.064;15.482;2024-03-02T00:36:27;7.20;99.90
7496;DHT22;3789;47.064;15.482;2024-03-02T00:38:55;7.30;99.90
7496;DHT22;3789;47.064;15.482;2024-03-02T00:41:31;7.10;99.90
7496;DHT22;3789;47.064;15.482;2024-03-02T00:44:07;6.90;99.90
7496;DHT22;3789;47.064;15.482;2024-03-02T00:46:42;6.90;99.90
7496;DHT22;3789;47.064;15.482;2024-03-02T00:49:24;6.90;99.90
7496;DHT22;3789;47.064;15.482;2024-03-02T00:51:58;7.00;99.90
7496;DHT22;3789;47.064;15.482;2024-03-02T00:54:29;7.10;99.90
7496;DHT22;3789;47.064;15.482;2024-03-02T00:57:00;7.30;99.90
7496;DHT22;3789;47.064;15.482;2024-03-02T00:59:36;7.20;99.90
7496;DHT22;3789;47.064;15.482;2024-03-02T01:02:05;7.20;99.90
7496;DHT22;3789;47.064;15.482;2024-03-02T01:04:33;7.20;99.90
7496;DHT22;3789;47.064;15.482;2024-03-02T01:07:04;7.20;99.90
7496;DHT22;3789;47.064;15.482;2024-03-02T01:09:32;7.20;99.90
7496;DHT22;3789;47.064;15.482;2024-03-02T01:12:10;7.00;99.90
7496;DHT22;3789;47.064;15.482;2024-03-02T01:14:39;7.00;99.90
7496;DHT22;3789;47.064;15.482;2024-03-02T01:17:07;7.10;99.90
7496;DHT22;3789;47.064;15.482;2024-03-02T01:19:36;7.20;99.90
7496;DHT22;3789;47.064;15.482;2024-03-02T01:22:04;7.20;99.90
7496;DHT22;3789;47.064;15.482;2024-03-02T01:24:32;7.00;99.90
7496;DHT22;3789;47.064;15.482;2024-03-02T01:27:11;6.90;99.90
7496;DHT22;3789;47.064;15.482;2024-03-02T01:29:41;7.00;99.90
7496;DHT22;3789;47.064;15.482;2024-03-02T01:32:11;6.90;99.90
7496;DHT22;3789;47.064;15.482;2024-03-02T01:34:40;6.70;99.90
7496;DHT22;3789;47.064;15.482;2024-03-02T01:37:10;6.60;99.90
7496;DHT22;3789;47.064;15.482;2024-03-02T01:39:37;6.60;99.90
7496;DHT22;3789;47.064;15.482;2024-03-02T01:42:05;6.60;99.90
7496;DHT22;3789;47.064;15.482;2024-03-02T01:44:42;6.60;99.90
7496;DHT22;3789;47.064;15.482;2024-03-02T01:47:14;6.60;99.90
7496;DHT22;3789;47.064;15.482;2024-03-02T01:49:47;6.70;99.90
7496;DHT22;3789;47.064;15.482;2024-03-02T01:52:15;6.70;99.90
7496;DHT22;3789;47.064;15.482;2024-03-02T01:54:46;6.80;99.90
7496;DHT22;3789;47.064;15.482;2024-03-02T01:57:14;7.00;99.90
7496;DHT22;3789;47.064;15.482;2024-03-02T01:59:45;6.80;99.90
7496;DHT22;3789;47.064;15.482;2024-03-02T02:02:21;6.80;99.90
7496;DHT22;3789;47.064;15.482;2024-03-02T02:04:55;6.80;99.90
7496;DHT22;3789;47.064;15.482;2024-03-02T02:07:31;6.90;99.90
7496;DHT22;3789;47.064;15.482;2024-03-02T02:10:02;7.00;99.90
7496;DHT22;3789;47.064;15.482;2024-03-02T02:12:39;7.00;99.90
7496;DHT22;3789;47.064;15.482;2024-03-02T02:15:29;7.00;99.90
7496;DHT22;3789;47.064;15.482;2024-03-02T02:17:58;7.00;99.90
7496;DHT22;3789;47.064;15.482;2024-03-02T02:20:30;7.00;99.90
7496;DHT22;3789;47.064;15.482;2024-03-02T02:23:07;7.00;99.90
7496;DHT22;3789;47.064;15.482;2024-03-02T02:25:43;7.10;99.90
7496;DHT22;3789;47.064;15.482;2024-03-02T02:28:12;7.00;99.90
7496;DHT22;3789;47.064;15.482;2024-03-02T02:30:42;7.10;99.90
7496;DHT22;3789;47.064;15.482;2024-03-02T02:33:24;7.10;99.90
7496;DHT22;3789;47.064;15.482;2024-03-02T02:35:53;7.10;99.90
7496;DHT22;3789;47.064;15.482;2024-03-02T02:38:20;7.10;99.90
7496;DHT22;3789;47.064;15.482;2024-03-02T02:40:49;7.10;99.90
7496;DHT22;3789;47.064;15.482;2024-03-02T02:43:17;7.20;99.90
7496;DHT22;3789;47.064;15.482;2024-03-02T02:45:46;7.20;99.90
7496;DHT22;3789;47.064;15.482;2024-03-02T02:48:15;7.20;99.90
7496;DHT22;3789;47.064;15.482;2024-03-02T02:50:44;7.20;99.90
7496;DHT22;3789;47.064;15.482;2024-03-02T02:53:14;7.20;99.90
7496;DHT22;3789;47.064;15.482;2024-03-02T02:55:43;7.20;99.90
7496;DHT22;3789;47.064;15.482;2024-03-02T02:58:16;7.20;99.90
7496;DHT22;3789;47.064;15.482;2024-03-02T03:00:45;7.20;99.90
7496;DHT22;3789;47.064;15.482;2024-03-02T03:03:15;7.10;99.90
7496;DHT22;3789;47.064;15.482;2024-03-02T03:05:46;7.00;99.90
7496;DHT22;3789;47.064;15.482;2024-03-02T03:08:13;7.10;99.90
7496;DHT22;3789;47.064;15.482;2024-03-02T03:10:52;7.10;99.90
7496;DHT22;3789;47.064;15.482;2024-03-02T03:13:19;7.10;99.90
7496;DHT22;3789;47.064;15.482;2024-03-02T03:15:49;7.10;99.90
7496;DHT22;3789;47.064;15.482;2024-03-02T03:18:17;7.10;99.90
7496;DHT22;3789;47.064;15.482;2024-03-02T03:20:49;7.20;99.90
7496;DHT22;3789;47.064;15.482;2024-03-02T03:23:25;7.20;99.90
7496;DHT22;3789;47.064;15.482;2024-03-02T03:25:54;7.20;99.90
7496;DHT22;3789;47.064;15.482;2024-03-02T03:28:23;7.20;99.90
7496;DHT22;3789;47.064;15.482;2024-03-02T03:30:53;7.20;99.90
7496;DHT22;3789;47.064;15.482;2024-03-02T03:33:21;7.20;99.90
7496;DHT22;3789;47.064;15.482;2024-03-02T03:35:50;7.30;99.90
7496;DHT22;3789;47.064;15.482;2024-03-02T03:38:17;7.20;99.90
7496;DHT22;3789;47.064;15.482;2024-03-02T03:40:45;7.10;99.90
7496;DHT22;3789;47.064;15.482;2024-03-02T03:43:19;7.00;99.90
7496;DHT22;3789;47.064;15.482;2024-03-02T03:45:51;6.90;99.90
7496;DHT22;3789;47.064;15.482;2024-03-02T03:48:20;6.90;99.90
7496;DHT22;3789;47.064;15.482;2024-03-02T03:50:49;6.70;99.90
7496;DHT22;3789;47.064;15.482;2024-03-02T03:53:25;6.70;99.90
7496;DHT22;3789;47.064;15.482;2024-03-02T03:55:53;6.70;99.90
7496;DHT22;3789;47.064;15.482;2024-03-02T03:58:26;6.80;99.90
7496;DHT22;3789;47.064;15.482;2024-03-02T04:00:54;6.80;99.90
7496;DHT22;3789;47.064;15.482;2024-03-02T04:03:22;6.70;99.90
7496;DHT22;3789;47.064;15.482;2024-03-02T04:05:50;6.60;99.90
7496;DHT22;3789;47.064;15.482;2024-03-02T04:08:20;6.60;99.90
7496;DHT22;3789;47.064;15.482;2024-03-02T04:10:57;6.60;99.90
7496;DHT22;3789;47.064;15.482;2024-03-02T04:13:26;6.60;99.90
7496;DHT22;3789;47.064;15.482;2024-03-02T04:15:54;6.70;99.90
7496;DHT22;3789;47.064;15.482;2024-03-02T04:18:24;6.70;99.90
7496;DHT22;3789;47.064;15.482;2024-03-02T04:20:53;6.60;99.90
7496;DHT22;3789;47.064;15.482;2024-03-02T04:23:24;6.60;99.90
7496;DHT22;3789;47.064;15.482;2024-03-02T04:25:54;6.60;99.90
7496;DHT22;3789;47.064;15.482;2024-03-02T04:28:21;6.70;99.90
7496;DHT22;3789;47.064;15.482;2024-03-02T04:30:51;6.70;99.90
7496;DHT22;3789;47.064;15.482;2024-03-02T04:33:19;6.80;99.90
7496;DHT22;3789;47.064;15.482;2024-03-02T04:35:48;6.80;99.90
7496;DHT22;3789;47.064;15.482;2024-03-02T04:38:17;6.80;99.90
7496;DHT22;3789;47.064;15.482;2024-03-02T04:40:54;6.80;99.90
7496;DHT22;3789;47.064;15.482;2024-03-02T04:43:26;6.90;99.90
7496;DHT22;3789;47.064;15.482;2024-03-02T04:45:55;6.90;99.90
7496;DHT22;3789;47.064;15.482;2024-03-02T04:48:26;7.00;99.90
7496;DHT22;3789;47.064;15.482;2024-03-02T04:50:56;7.00;99.90
7496;DHT22;3789;47.064;15.482;2024-03-02T04:53:24;7.00;99.90
7496;DHT22;3789;47.064;15.482;2024-03-02T04:55:54;7.00;99.90
7496;DHT22;3789;47.064;15.482;2024-03-02T04:58:22;6.80;99.90
7496;DHT22;3789;47.064;15.482;2024-03-02T05:00:51;6.80;99.90
7496;DHT22;3789;47.064;15.482;2024-03-02T05:03:24;6.80;99.90
7496;DHT22;3789;47.064;15.482;2024-03-02T05:05:59;6.80;99.90
7496;DHT22;3789;47.064;15.482;2024-03-02T05:08:29;6.80;99.90
7496;DHT22;3789;47.064;15.482;2024-03-02T05:11:00;6.80;99.90
7496;DHT22;3789;47.064;15.482;2024-03-02T05:13:53;6.80;99.90
7496;DHT22;3789;47.064;15.482;2024-03-02T05:16:23;7.00;99.90
7496;DHT22;3789;47.064;15.482;2024-03-02T05:18:51;7.10;99.90
7496;DHT22;3789;47.064;15.482;2024-03-02T05:21:22;7.00;99.90
7496;DHT22;3789;47.064;15.482;2024-03-02T05:23:53;7.10;99.90
7496;DHT22;3789;47.064;15.482;2024-03-02T05:26:22;7.00;99.90
7496;DHT22;3789;47.064;15.482;2024-03-02T05:28:59;6.90;99.90
7496;DHT22;3789;47.064;15.482;2024-03-02T05:31:28;7.00;99.90
7496;DHT22;3789;47.064;15.482;2024-03-02T05:33:56;7.00;99.90
7496;DHT22;3789;47.064;15.482;2024-03-02T05:36:28;7.00;99.90
7496;DHT22;3789;47.064;15.482;2024-03-02T05:38:57;7.00;99.90
7496;DHT22;3789;47.064;15.482;2024-03-02T05:41:28;6.90;99.90
7496;DHT22;3789;47.064;15.482;2024-03-02T05:43:56;6.90;99.90
7496;DHT22;3789;47.064;15.482;2024-03-02T05:46:26;6.80;99.90
7496;DHT22;3789;47.064;15.482;2024-03-02T05:48:54;6.90;99.90
7496;DHT22;3789;47.064;15.482;2024-03-02T05:51:21;7.00;99.90
7496;DHT22;3789;47.064;15.482;2024-03-02T05:53:53;7.00;99.90
7496;DHT22;3789;47.064;15.482;2024-03-02T05:56:21;6.80;99.90
7496;DHT22;3789;47.064;15.482;2024-03-02T05:59:02;6.70;99.90
7496;DHT22;3789;47.064;15.482;2024-03-02T06:01:45;6.60;99.90
7496;DHT22;3789;47.064;15.482;2024-03-02T06:04:18;6.60;99.90
7496;DHT22;3789;47.064;15.482;2024-03-02T06:06:47;6.60;99.90
7496;DHT22;3789;47.064;15.482;2024-03-02T06:09:18;6.70;99.90
7496;DHT22;3789;47.064;15.482;2024-03-02T06:11:49;6.80;99.90
7496;DHT22;3789;47.064;15.482;2024-03-02T06:14:20;6.80;99.90
7496;DHT22;3789;47.064;15.482;2024-03-02T06:16:50;7.00;99.90
7496;DHT22;3789;47.064;15.482;2024-03-02T06:19:21;7.10;99.90
7496;DHT22;3789;47.064;15.482;2024-03-02T06:21:48;7.00;99.90
7496;DHT22;3789;47.064;15.482;2024-03-02T06:24:17;7.00;99.90
7496;DHT22;3789;47.064;15.482;2024-03-02T06:26:46;6.90;99.90
7496;DHT22;3789;47.064;15.482;2024-03-02T06:29:18;6.90;99.90
7496;DHT22;3789;47.064;15.482;2024-03-02T06:31:46;6.90;99.90
7496;DHT22;3789;47.064;15.482;2024-03-02T06:34:20;7.00;99.90
7496;DHT22;3789;47.064;15.482;2024-03-02T06:36:48;7.00;99.90
7496;DHT22;3789;47.064;15.482;2024-03-02T06:39:25;7.00;99.90
7496;DHT22;3789;47.064;15.482;2024-03-02T06:41:53;7.00;99.90
7496;DHT22;3789;47.064;15.482;2024-03-02T06:44:20;6.80;99.90
7496;DHT22;3789;47.064;15.482;2024-03-02T06:46:48;6.90;99.90
7496;DHT22;3789;47.064;15.482;2024-03-02T06:49:15;6.90;99.90
7496;DHT22;3789;47.064;15.482;2024-03-02T06:51:44;6.90;99.90
7496;DHT22;3789;47.064;15.482;2024-03-02T06:54:12;6.80;99.90
7496;DHT22;3789;47.064;15.482;2024-03-02T06:56:39;6.80;99.90
7496;DHT22;3789;47.064;15.482;2024-03-02T06:59:06;7.00;99.90
7496;DHT22;3789;47.064;15.482;2024-03-02T07:01:34;7.00;99.90
7496;DHT22;3789;47.064;15.482;2024-03-02T07:04:01;7.10;99.90
7496;DHT22;3789;47.064;15.482;2024-03-02T07:06:28;7.10;99.90
7496;DHT22;3789;47.064;15.482;2024-03-02T07:08:55;7.10;99.90
7496;DHT22;3789;47.064;15.482;2024-03-02T07:11:23;7.10;99.90
7496;DHT22;3789;47.064;15.482;2024-03-02T07:13:50;7.00;99.90
7496;DHT22;3789;47.064;15.482;2024-03-02T07:16:17;7.00;99.90
7496;DHT22;3789;47.064;15.482;2024-03-02T07:19:00;7.00;99.90
7496;DHT22;3789;47.064;15.482;2024-03-02T07:21:29;7.10;99.90
7496;DHT22;3789;47.064;15.482;2024-03-02T07:23:56;7.30;99.90
7496;DHT22;3789;47.064;15.482;2024-03-02T07:26:23;7.60;99.90
7496;DHT22;3789;47.064;15.482;2024-03-02T07:28:54;7.60;99.90
7496;DHT22;3789;47.064;15.482;2024-03-02T07:31:21;7.70;99.90
7496;DHT22;3789;47.064;15.482;2024-03-02T07:33:49;7.80;99.90
7496;DHT22;3789;47.064;15.482;2024-03-02T07:36:16;8.10;99.90
7496;DHT22;3789;47.064;15.482;2024-03-02T07:38:43;8.80;99.90
7496;DHT22;3789;47.064;15.482;2024-03-02T07:41:12;9.60;99.90
7496;DHT22;3789;47.064;15.482;2024-03-02T07:43:39;10.60;99.90
7496;DHT22;3789;47.064;15.482;2024-03-02T07:46:06;11.70;99.90
7496;DHT22;3789;47.064;15.482;2024-03-02T07:48:34;13.00;99.90
7496;DHT22;3789;47.064;15.482;2024-03-02T07:51:01;13.90;99.90
7496;DHT22;3789;47.064;15.482;2024-03-02T07:53:29;14.30;99.90
7496;DHT22;3789;47.064;15.482;2024-03-02T07:55:57;14.10;99.90
7496;DHT22;3789;47.064;15.482;2024-03-02T07:58:29;13.80;99.90
7496;DHT22;3789;47.064;15.482;2024-03-02T08:00:58;13.40;99.90
7496;DHT22;3789;47.064;15.482;2024-03-02T08:03:28;13.20;99.90
7496;DHT22;3789;47.064;15.482;2024-03-02T08:05:56;13.40;99.90
7496;DHT22;3789;47.064;15.482;2024-03-02T08:08:23;13.20;99.90
7496;DHT22;3789;47.064;15.482;2024-03-02T08:10:50;12.90;99.90
7496;DHT22;3789;47.064;15.482;2024-03-02T08:13:17;12.90;99.90
7496;DHT22;3789;47.064;15.482;2024-03-02T08:15:45;12.40;99.90
7496;DHT22;3789;47.064;15.482;2024-03-02T08:18:12;12.30;99.90
7496;DHT22;3789;47.064;15.482;2024-03-02T08:20:40;12.10;99.90
7496;DHT22;3789;47.064;15.482;2024-03-02T08:23:07;11.90;99.90
7496;DHT22;3789;47.064;15.482;2024-03-02T08:25:35;11.60;99.90
7496;DHT22;3789;47.064;15.482;2024-03-02T08:28:02;11.60;99.90
7496;DHT22;3789;47.064;15.482;2024-03-02T08:30:29;11.30;99.90
7496;DHT22;3789;47.064;15.482;2024-03-02T08:32:57;11.40;99.90
7496;DHT22;3789;47.064;15.482;2024-03-02T08:35:24;11.30;99.90
7496;DHT22;3789;47.064;15.482;2024-03-02T08:37:51;11.10;99.90
7496;DHT22;3789;47.064;15.482;2024-03-02T08:40:18;11.00;99.90
7496;DHT22;3789;47.064;15.482;2024-03-02T08:42:47;11.20;99.90
7496;DHT22;3789;47.064;15.482;2024-03-02T08:45:14;11.10;99.90
7496;DHT22;3789;47.064;15.482;2024-03-02T08:47:42;11.20;99.90
7496;DHT22;3789;47.064;15.482;2024-03-02T08:50:10;11.20;99.90
7496;DHT22;3789;47.064;15.482;2024-03-02T08:52:37;11.30;99.90
7496;DHT22;3789;47.064;15.482;2024-03-02T08:55:05;11.40;99.90
7496;DHT22;3789;47.064;15.482;2024-03-02T08:57:34;11.40;99.90
7496;DHT22;3789;47.064;15.482;2024-03-02T09:00:01;11.40;99.90
7496;DHT22;3789;47.064;15.482;2024-03-02T09:02:29;11.50;99.90
7496;DHT22;3789;47.064;15.482;2024-03-02T09:04:56;11.50;99.90
7496;DHT22;3789;47.064;15.482;2024-03-02T09:07:23;11.30;99.90
7496;DHT22;3789;47.064;15.482;2024-03-02T09:09:51;11.10;99.90
7496;DHT22;3789;47.064;15.482;2024-03-02T09:12:19;10.90;99.90
7496;DHT22;3789;47.064;15.482;2024-03-02T09:14:47;10.80;99.90
7496;DHT22;3789;47.064;15.482;2024-03-02T09:17:14;10.90;99.90
7496;DHT22;3789;47.064;15.482;2024-03-02T09:19:41;10.80;99.90
7496;DHT22;3789;47.064;15.482;2024-03-02T09:22:08;10.70;99.90
7496;DHT22;3789;47.064;15.482;2024-03-02T09:24:36;10.40;99.90
7496;DHT22;3789;47.064;15.482;2024-03-02T09:27:04;10.50;99.90
7496;DHT22;3789;47.064;15.482;2024-03-02T09:29:32;10.50;99.90
7496;DHT22;3789;47.064;15.482;2024-03-02T09:31:59;10.60;99.90
7496;DHT22;3789;47.064;15.482;2024-03-02T09:34:27;10.80;99.90
7496;DHT22;3789;47.064;15.482;2024-03-02T09:36:54;10.90;99.90
7496;DHT22;3789;47.064;15.482;2024-03-02T09:39:21;10.90;99.90
7496;DHT22;3789;47.064;15.482;2024-03-02T09:41:49;11.00;99.90
7496;DHT22;3789;47.064;15.482;2024-03-02T09:44:16;10.90;99.90
7496;DHT22;3789;47.064;15.482;2024-03-02T09:46:44;10.90;99.90
7496;DHT22;3789;47.064;15.482;2024-03-02T09:49:15;11.00;99.90
7496;DHT22;3789;47.064;15.482;2024-03-02T09:51:47;11.00;99.90
7496;DHT22;3789;47.064;15.482;2024-03-02T09:54:18;11.00;99.90
7496;DHT22;3789;47.064;15.482;2024-03-02T09:56:50;10.90;99.90
7496;DHT22;3789;47.064;15.482;2024-03-02T09:59:18;10.80;99.90
7496;DHT22;3789;47.064;15.482;2024-03-02T10:01:57;10.80;99.90
7496;DHT22;3789;47.064;15.482;2024-03-02T10:04:26;10.50;99.90
7496;DHT22;3789;47.064;15.482;2024-03-02T10:09:42;10.70;99.90
7496;DHT22;3789;47.064;15.482;2024-03-02T10:12:14;10.70;99.90
7496;DHT22;3789;47.064;15.482;2024-03-02T10:14:42;10.70;99.90
7496;DHT22;3789;47.064;15.482;2024-03-02T10:17:11;10.80;99.90
7496;DHT22;3789;47.064;15.482;2024-03-02T10:19:40;10.90;99.90
7496;DHT22;3789;47.064;15.482;2024-03-02T10:22:08;11.00;99.90
7496;DHT22;3789;47.064;15.482;2024-03-02T10:24:42;11.10;99.90
7496;DHT22;3789;47.064;15.482;2024-03-02T10:27:26;11.30;99.90
7496;DHT22;3789;47.064;15.482;2024-03-02T10:29:54;11.40;99.90
7496;DHT22;3789;47.064;15.482;2024-03-02T10:32:22;11.30;99.90
7496;DHT22;3789;47.064;15.482;2024-03-02T10:34:51;10.70;99.90
7496;DHT22;3789;47.064;15.482;2024-03-02T10:37:19;10.40;99.90
7496;DHT22;3789;47.064;15.482;2024-03-02T10:39:48;10.30;99.90
7496;DHT22;3789;47.064;15.482;2024-03-02T10:42:16;10.30;99.90
7496;DHT22;3789;47.064;15.482;2024-03-02T10:44:45;10.40;99.90
7496;DHT22;3789;47.064;15.482;2024-03-02T10:47:14;10.50;99.90
7496;DHT22;3789;47.064;15.482;2024-03-02T10:49:42;10.60;99.90
7496;DHT22;3789;47.064;15.482;2024-03-02T10:52:12;10.50;99.90
7496;DHT22;3789;47.064;15.482;2024-03-02T10:54:42;10.50;99.90
7496;DHT22;3789;47.064;15.482;2024-03-02T10:57:11;10.80;99.90
7496;DHT22;3789;47.064;15.482;2024-03-02T10:59:56;11.10;99.90
7496;DHT22;3789;47.064;15.482;2024-03-02T11:02:25;11.20;99.90
7496;DHT22;3789;47.064;15.482;2024-03-02T11:04:55;11.20;99.90
7496;DHT22;3789;47.064;15.482;2024-03-02T11:07:23;11.00;99.90
7496;DHT22;3789;47.064;15.482;2024-03-02T11:09:59;11.10;99.90
7496;DHT22;3789;47.064;15.482;2024-03-02T11:12:52;11.30;99.90
7496;DHT22;3789;47.064;15.482;2024-03-02T11:15:25;11.70;99.90
7496;DHT22;3789;47.064;15.482;2024-03-02T11:17:53;11.80;99.90
7496;DHT22;3789;47.064;15.482;2024-03-02T11:20:21;11.90;99.90
7496;DHT22;3789;47.064;15.482;2024-03-02T11:22:49;12.10;99.90
7496;DHT22;3789;47.064;15.482;2024-03-02T11:25:28;12.30;99.90
7496;DHT22;3789;47.064;15.482;2024-03-02T11:28:04;12.40;99.90
7496;DHT22;3789;47.064;15.482;2024-03-02T11:33:06;12.20;99.90
7496;DHT22;3789;47.064;15.482;2024-03-02T11:35:36;12.40;99.90
7496;DHT22;3789;47.064;15.482;2024-03-02T11:38:06;12.50;99.90
7496;DHT22;3789;47.064;15.482;2024-03-02T11:40:34;12.50;99.90
7496;DHT22;3789;47.064;15.482;2024-03-02T11:43:01;12.40;99.90
7496;DHT22;3789;47.064;15.482;2024-03-02T11:45:29;12.50;99.90
7496;DHT22;3789;47.064;15.482;2024-03-02T11:47:58;12.50;99.90
7496;DHT22;3789;47.064;15.482;2024-03-02T11:50:49;12.50;99.90
7496;DHT22;3789;47.064;15.482;2024-03-02T11:53:18;12.50;99.90
7496;DHT22;3789;47.064;15.482;2024-03-02T11:55:46;12.60;99.90
7496;DHT22;3789;47.064;15.482;2024-03-02T11:58:15;12.80;99.90
7496;DHT22;3789;47.064;15.482;2024-03-02T12:00:51;13.00;99.90
7496;DHT22;3789;47.064;15.482;2024-03-02T12:03:21;13.10;99.90
7496;DHT22;3789;47.064;15.482;2024-03-02T12:05:54;13.10;99.90
7496;DHT22;3789;47.064;15.482;2024-03-02T12:08:22;13.10;99.90
7496;DHT22;3789;47.064;15.482;2024-03-02T12:10:58;13.20;99.90
7496;DHT22;3789;47.064;15.482;2024-03-02T12:13:28;13.10;99.90
7496;DHT22;3789;47.064;15.482;2024-03-02T12:15:56;13.10;99.90
7496;DHT22;3789;47.064;15.482;2024-03-02T12:18:24;13.10;99.90
7496;DHT22;3789;47.064;15.482;2024-03-02T12:20:53;13.20;99.90
7496;DHT22;3789;47.064;15.482;2024-03-02T12:23:24;13.20;99.90
7496;DHT22;3789;47.064;15.482;2024-03-02T12:25:52;13.40;99.90
7496;DHT22;3789;47.064;15.482;2024-03-02T12:28:20;13.30;99.90
7496;DHT22;3789;47.064;15.482;2024-03-02T12:30:48;13.30;99.90
7496;DHT22;3789;47.064;15.482;2024-03-02T12:33:20;13.30;99.90
7496;DHT22;3789;47.064;15.482;2024-03-02T12:35:49;13.40;99.90
7496;DHT22;3789;47.064;15.482;2024-03-02T12:38:16;13.60;99.90
7496;DHT22;3789;47.064;15.482;2024-03-02T12:40:44;13.50;99.90
7496;DHT22;3789;47.064;15.482;2024-03-02T12:43:11;13.50;99.90
7496;DHT22;3789;47.064;15.482;2024-03-02T12:45:38;13.50;99.90
7496;DHT22;3789;47.064;15.482;2024-03-02T12:48:06;13.70;99.90
7496;DHT22;3789;47.064;15.482;2024-03-02T12:50:34;13.40;99.90
7496;DHT22;3789;47.064;15.482;2024-03-02T12:53:01;13.30;99.90
7496;DHT22;3789;47.064;15.482;2024-03-02T12:55:30;13.50;99.90
7496;DHT22;3789;47.064;15.482;2024-03-02T12:57:59;13.80;99.90
7496;DHT22;3789;47.064;15.482;2024-03-02T13:00:30;13.90;99.90
7496;DHT22;3789;47.064;15.482;2024-03-02T13:03:03;14.10;99.90
7496;DHT22;3789;47.064;15.482;2024-03-02T13:05:31;14.00;99.90
7496;DHT22;3789;47.064;15.482;2024-03-02T13:07:59;13.90;99.90
7496;DHT22;3789;47.064;15.482;2024-03-02T13:10:27;13.90;99.90
7496;DHT22;3789;47.064;15.482;2024-03-02T13:12:56;13.80;99.90
7496;DHT22;3789;47.064;15.482;2024-03-02T13:15:25;13.80;99.90
7496;DHT22;3789;47.064;15.482;2024-03-02T13:17:54;13.40;99.90
7496;DHT22;3789;47.064;15.482;2024-03-02T13:20:31;13.30;99.90
7496;DHT22;3789;47.064;15.482;2024-03-02T13:22:59;13.20;99.90
7496;DHT22;3789;47.064;15.482;2024-03-02T13:25:26;13.20;99.90
7496;DHT22;3789;47.064;15.482;2024-03-02T13:27:56;13.20;99.90
7496;DHT22;3789;47.064;15.482;2024-03-02T13:30:23;13.20;99.90
7496;DHT22;3789;47.064;15.482;2024-03-02T13:32:51;13.20;99.90
7496;DHT22;3789;47.064;15.482;2024-03-02T13:35:19;13.20;99.90
7496;DHT22;3789;47.064;15.482;2024-03-02T13:37:47;13.20;99.90
7496;DHT22;3789;47.064;15.482;2024-03-02T13:40:14;13.20;99.90
7496;DHT22;3789;47.064;15.482;2024-03-02T13:42:44;13.30;99.90
7496;DHT22;3789;47.064;15.482;2024-03-02T13:45:13;13.30;99.90
7496;DHT22;3789;47.064;15.482;2024-03-02T13:47:40;13.20;99.90
7496;DHT22;3789;47.064;15.482;2024-03-02T13:50:08;13.30;99.90
7496;DHT22;3789;47.064;15.482;2024-03-02T13:52:35;13.30;99.90
7496;DHT22;3789;47.064;15.482;2024-03-02T13:55:03;13.30;99.90
7496;DHT22;3789;47.064;15.482;2024-03-02T13:57:30;13.20;99.90
7496;DHT22;3789;47.064;15.482;2024-03-02T13:59:58;13.20;99.90
7496;DHT22;3789;47.064;15.482;2024-03-02T14:02:25;13.10;99.90
7496;DHT22;3789;47.064;15.482;2024-03-02T14:04:53;13.00;99.90
7496;DHT22;3789;47.064;15.482;2024-03-02T14:07:20;13.00;99.90
7496;DHT22;3789;47.064;15.482;2024-03-02T14:09:47;13.20;99.90
7496;DHT22;3789;47.064;15.482;2024-03-02T14:12:14;13.30;99.90
7496;DHT22;3789;47.064;15.482;2024-03-02T14:14:42;13.40;99.90
7496;DHT22;3789;47.064;15.482;2024-03-02T14:17:09;13.30;99.90
7496;DHT22;3789;47.064;15.482;2024-03-02T14:19:41;13.20;99.90
7496;DHT22;3789;47.064;15.482;2024-03-02T14:22:08;13.20;99.90
7496;DHT22;3789;47.064;15.482;2024-03-02T14:24:35;13.30;99.90
7496;DHT22;3789;47.064;15.482;2024-03-02T14:27:03;13.10;99.90
7496;DHT22;3789;47.064;15.482;2024-03-02T14:29:50;13.00;99.90
7496;DHT22;3789;47.064;15.482;2024-03-02T14:32:18;12.70;99.90
7496;DHT22;3789;47.064;15.482;2024-03-02T14:34:45;12.70;99.90
7496;DHT22;3789;47.064;15.482;2024-03-02T14:37:15;12.70;99.90
7496;DHT22;3789;47.064;15.482;2024-03-02T14:39:42;12.20;99.90
7496;DHT22;3789;47.064;15.482;2024-03-02T14:42:10;11.90;99.90
7496;DHT22;3789;47.064;15.482;2024-03-02T14:44:37;11.80;99.90
7496;DHT22;3789;47.064;15.482;2024-03-02T14:47:08;11.80;99.90
7496;DHT22;3789;47.064;15.482;2024-03-02T14:49:37;11.90;99.90
7496;DHT22;3789;47.064;15.482;2024-03-02T14:52:09;11.90;99.90
7496;DHT22;3789;47.064;15.482;2024-03-02T14:54:37;12.00;99.90
7496;DHT22;3789;47.064;15.482;2024-03-02T14:57:06;12.10;99.90
7496;DHT22;3789;47.064;15.482;2024-03-02T14:59:35;12.10;99.90
7496;DHT22;3789;47.064;15.482;2024-03-02T15:02:07;12.00;99.90
7496;DHT22;3789;47.064;15.482;2024-03-02T15:04:35;11.90;99.90
7496;DHT22;3789;47.064;15.482;2024-03-02T15:07:04;11.80;99.90
7496;DHT22;3789;47.064;15.482;2024-03-02T15:09:33;11.80;99.90
7496;DHT22;3789;47.064;15.482;2024-03-02T15:12:02;11.70;99.90
7496;DHT22;3789;47.064;15.482;2024-03-02T15:14:31;11.90;99.90
7496;DHT22;3789;47.064;15.482;2024-03-02T15:16:58;12.00;99.90
7496;DHT22;3789;47.064;15.482;2024-03-02T15:19:25;12.10;99.90
7496;DHT22;3789;47.064;15.482;2024-03-02T15:21:53;11.90;99.90
7496;DHT22;3789;47.064;15.482;2024-03-02T15:24:20;11.90;99.90
7496;DHT22;3789;47.064;15.482;2024-03-02T15:26:47;11.90;99.90
7496;DHT22;3789;47.064;15.482;2024-03-02T15:29:15;11.60;99.90
7496;DHT22;3789;47.064;15.482;2024-03-02T15:31:42;11.50;99.90
7496;DHT22;3789;47.064;15.482;2024-03-02T15:34:09;11.60;99.90
7496;DHT22;3789;47.064;15.482;2024-03-02T15:36:37;11.70;99.90
7496;DHT22;3789;47.064;15.482;2024-03-02T15:39:05;11.80;99.90
7496;DHT22;3789;47.064;15.482;2024-03-02T15:41:35;11.90;99.90
7496;DHT22;3789;47.064;15.482;2024-03-02T15:44:03;11.80;99.90
7496;DHT22;3789;47.064;15.482;2024-03-02T15:46:30;11.80;99.90
7496;DHT22;3789;47.064;15.482;2024-03-02T15:48:57;11.90;99.90
7496;DHT22;3789;47.064;15.482;2024-03-02T15:51:27;11.90;99.90
7496;DHT22;3789;47.064;15.482;2024-03-02T15:53:55;11.80;99.90
7496;DHT22;3789;47.064;15.482;2024-03-02T15:56:22;11.80;99.90
7496;DHT22;3789;47.064;15.482;2024-03-02T15:58:49;11.60;99.90
7496;DHT22;3789;47.064;15.482;2024-03-02T16:01:17;11.60;99.90
7496;DHT22;3789;47.064;15.482;2024-03-02T16:03:46;11.20;99.90
7496;DHT22;3789;47.064;15.482;2024-03-02T16:06:14;11.00;99.90
7496;DHT22;3789;47.064;15.482;2024-03-02T16:08:41;10.90;99.90
7496;DHT22;3789;47.064;15.482;2024-03-02T16:11:09;10.80;99.90
7496;DHT22;3789;47.064;15.482;2024-03-02T16:13:36;11.00;99.90